Time;durP1;ratioP1;P1;durP2;ratioP2;P2;SDS_P1;SDS_P2;PMS_P1;PMS_P2;Temp;Humidity;BMP_temperature;BMP_pressure;BME280_temperature;BME280_humidity;BME280_pressure;Samples;Min_cycle;Max_cycle;Signal;HPM_P1;HPM_P2
2022/10/28 00:01:43;;;;;;;;;;;;;;;11.23;89.52;97180.44;5016459;28;19921;-79
2022/10/28 00:04:09;;;;;;;;;;;;;;;11.21;89.41;97185.38;5016056;28;19921;-79
2022/10/28 00:06:36;;;;;;;;;;;;;;;11.21;89.11;97179.13;5017780;28;19927;-79
2022/10/28 00:09:04;;;;;;;;;;;;;;;11.22;88.85;97192.47;5017876;28;19921;-79
2022/10/28 00:11:32;;;;;;;;;;;;;;;11.23;88.64;97177.72;5017283;28;20382;-79
2022/10/28 00:13:59;;;;;;;;;;;;;;;11.28;88.70;97186.91;5019014;28;19921;-79
2022/10/28 00:16:26;;;;;;;;;;;;;;;11.28;88.58;97178.75;5018002;28;19929;-79
2022/10/28 00:18:54;;;;;;;;;;;;;;;11.31;88.12;97189.03;5016235;28;19921;-81
2022/10/28 00:21:21;;;;;;;;;;;;;;;11.33;87.80;97181.34;5015878;28;19927;-79
2022/10/28 00:23:47;;;;;;;;;;;;;;;11.36;87.61;97180.75;5016779;28;19921;-79
2022/10/28 00:26:17;;;;;;;;;;;;;;;11.40;87.31;97179.84;5016312;28;19925;-79
2022/10/28 00:28:44;;;;;;;;;;;;;;;11.43;87.10;97178.41;5035704;28;19921;-80
2022/10/28 00:31:11;;;;;;;;;;;;;;;11.45;86.97;97173.47;5036739;28;19927;-79
2022/10/28 00:33:38;;;;;;;;;;;;;;;11.47;86.46;97173.97;5038824;28;19921;-78
2022/10/28 00:36:08;;;;;;;;;;;;;;;11.53;86.27;97174.69;5028876;28;19925;-79
2022/10/28 00:38:36;;;;;;;;;;;;;;;11.56;86.02;97180.34;5034049;28;19921;-79
2022/10/28 00:41:03;;;;;;;;;;;;;;;11.58;85.32;97183.56;5024047;28;20005;-79
2022/10/28 00:43:39;;;;;;;;;;;;;;;11.60;84.77;97184.09;5040762;28;19967;-79
2022/10/28 00:46:08;;;;;;;;;;;;;;;11.64;84.81;97185.09;5039866;28;19921;-79
2022/10/28 00:48:34;;;;;;;;;;;;;;;11.65;84.58;97175.78;5037148;28;20421;-79
2022/10/28 00:51:01;;;;;;;;;;;;;;;11.63;84.73;97178.00;5036525;28;19927;-80
2022/10/28 00:53:28;;;;;;;;;;;;;;;11.62;84.86;97176.41;5037156;28;19921;-79
2022/10/28 00:55:56;;;;;;;;;;;;;;;11.62;84.38;97168.22;5038780;28;19928;-79
2022/10/28 00:58:25;;;;;;;;;;;;;;;11.62;84.31;97168.22;5036332;28;19971;-79
2022/10/28 01:00:53;;;;;;;;;;;;;;;11.61;84.56;97169.31;5017532;28;20004;-79
2022/10/28 01:03:20;;;;;;;;;;;;;;;11.61;84.59;97166.59;5017602;28;19928;-79
2022/10/28 01:05:49;;;;;;;;;;;;;;;11.56;84.41;97163.97;5019097;28;20100;-78
2022/10/28 01:08:16;;;;;;;;;;;;;;;11.55;84.46;97156.91;5025751;28;19944;-79
2022/10/28 01:11:00;;;;;;;;;;;;;;;11.57;84.31;97164.78;5041433;28;19927;-81
2022/10/28 01:13:33;;;;;;;;;;;;;;;11.57;83.96;97168.31;5021635;28;19928;-80
2022/10/28 01:16:05;;;;;;;;;;;;;;;11.58;83.70;97166.38;5015115;28;19921;-79
2022/10/28 01:18:38;;;;;;;;;;;;;;;11.49;83.89;97163.59;5020254;28;19927;-79
2022/10/28 01:21:34;;;;;;;;;;;;;;;11.48;83.72;97164.69;5036810;28;20377;-79
2022/10/28 01:24:12;;;;;;;;;;;;;;;11.45;83.49;97168.03;5032817;28;19921;-79
2022/10/28 01:27:04;;;;;;;;;;;;;;;11.45;83.58;97163.38;5037020;28;19956;-78
2022/10/28 01:29:45;;;;;;;;;;;;;;;11.45;83.16;97162.56;5037326;28;19920;-78
2022/10/28 01:32:18;;;;;;;;;;;;;;;11.48;83.42;97161.94;5017211;28;19999;-79
2022/10/28 01:34:49;;;;;;;;;;;;;;;11.46;83.66;97159.53;5035982;28;19926;-79
2022/10/28 01:37:18;;;;;;;;;;;;;;;11.47;84.19;97154.88;5033611;28;19948;-79
2022/10/28 01:39:47;;;;;;;;;;;;;;;11.45;84.35;97152.47;5019315;28;19925;-79
2022/10/28 01:42:17;;;;;;;;;;;;;;;11.43;84.17;97159.31;5014190;28;19921;-79
2022/10/28 01:44:48;;;;;;;;;;;;;;;11.40;83.17;97176.31;5015502;28;19928;-79
2022/10/28 01:47:19;;;;;;;;;;;;;;;11.37;83.53;97164.06;5014732;28;20337;-79
2022/10/28 01:49:48;;;;;;;;;;;;;;;11.34;83.54;97155.72;5031558;28;19928;-79
2022/10/28 01:52:16;;;;;;;;;;;;;;;11.30;83.58;97163.69;5034488;28;20399;-79
2022/10/28 01:54:46;;;;;;;;;;;;;;;11.29;83.97;97164.00;5035070;28;19921;-79
2022/10/28 01:57:14;;;;;;;;;;;;;;;11.25;83.95;97163.78;5033061;28;19920;-79
2022/10/28 01:59:41;;;;;;;;;;;;;;;11.23;84.10;97166.81;5035332;28;20304;-79
2022/10/28 02:02:07;;;;;;;;;;;;;;;11.18;84.52;97166.91;5037002;28;19921;-79
2022/10/28 02:04:35;;;;;;;;;;;;;;;11.14;84.60;97168.63;5029144;28;20374;-80
2022/10/28 02:07:02;;;;;;;;;;;;;;;11.10;84.65;97166.78;5018030;28;19941;-79
2022/10/28 02:09:34;;;;;;;;;;;;;;;11.08;85.00;97174.47;5030890;28;20012;-79
2022/10/28 02:12:15;;;;;;;;;;;;;;;11.04;85.09;97166.09;5037487;28;19921;-79
2022/10/28 02:14:50;;;;;;;;;;;;;;;11.04;85.26;97163.34;5025101;28;20402;-79
2022/10/28 02:17:21;;;;;;;;;;;;;;;11.01;85.35;97165.88;5015918;28;19927;-79
2022/10/28 02:19:50;;;;;;;;;;;;;;;10.91;85.51;97162.25;5031918;28;19921;-80
2022/10/28 02:22:20;;;;;;;;;;;;;;;10.86;85.02;97156.06;5037169;28;19956;-79
2022/10/28 02:24:50;;;;;;;;;;;;;;;10.81;84.98;97154.25;5025734;28;19973;-79
2022/10/28 02:27:21;;;;;;;;;;;;;;;10.81;85.23;97153.44;5016077;28;19925;-79
2022/10/28 02:29:53;;;;;;;;;;;;;;;10.82;85.24;97160.50;5015890;28;19927;-79
2022/10/28 02:32:22;;;;;;;;;;;;;;;10.82;85.53;97155.06;5015676;28;20361;-82
2022/10/28 02:34:52;;;;;;;;;;;;;;;10.80;85.76;97143.63;5015036;28;19972;-78
2022/10/28 02:37:21;;;;;;;;;;;;;;;10.77;85.74;97152.41;5028954;28;20412;-80
2022/10/28 02:39:52;;;;;;;;;;;;;;;10.74;85.67;97151.09;5034946;28;20000;-79
2022/10/28 02:42:22;;;;;;;;;;;;;;;10.70;85.68;97142.72;5035297;28;19921;-79
2022/10/28 02:44:53;;;;;;;;;;;;;;;10.73;85.65;97141.31;5026157;28;19921;-79
2022/10/28 02:47:21;;;;;;;;;;;;;;;10.78;85.94;97143.13;5016569;28;20336;-78
2022/10/28 02:49:52;;;;;;;;;;;;;;;10.78;85.73;97148.56;5016689;28;19921;-77
2022/10/28 02:52:19;;;;;;;;;;;;;;;10.80;85.77;97141.72;5016639;28;19921;-79
2022/10/28 02:54:50;;;;;;;;;;;;;;;10.83;85.91;97145.75;5020683;28;19925;-79
2022/10/28 02:57:18;;;;;;;;;;;;;;;10.85;86.16;97148.97;5019588;28;20015;-79
2022/10/28 02:59:51;;;;;;;;;;;;;;;10.85;86.27;97143.53;5041186;28;19921;-79
2022/10/28 03:02:17;;;;;;;;;;;;;;;10.87;86.13;97141.34;5049047;28;20405;-79
2022/10/28 03:04:44;;;;;;;;;;;;;;;10.84;85.98;97142.72;5032696;28;19921;-79
2022/10/28 03:07:11;;;;;;;;;;;;;;;10.84;85.83;97144.66;5029871;28;19921;-79
2022/10/28 03:09:38;;;;;;;;;;;;;;;10.83;85.81;97141.13;5039400;28;20020;-79
2022/10/28 03:12:04;;;;;;;;;;;;;;;10.83;85.80;97137.59;5041309;28;19921;-79
2022/10/28 03:14:31;;;;;;;;;;;;;;;10.83;86.24;97140.31;5033890;28;20345;-79
2022/10/28 03:16:57;;;;;;;;;;;;;;;10.85;86.23;97138.09;5024842;28;19972;-78
2022/10/28 03:19:23;;;;;;;;;;;;;;;10.84;86.01;97142.72;5047829;28;19952;-78
2022/10/28 03:21:50;;;;;;;;;;;;;;;10.81;85.73;97139.81;5042861;28;19948;-78
2022/10/28 03:24:18;;;;;;;;;;;;;;;10.76;85.89;97134.47;5042859;28;19964;-78
2022/10/28 03:26:44;;;;;;;;;;;;;;;10.70;85.94;97141.88;5046065;28;19980;-80
2022/10/28 03:29:10;;;;;;;;;;;;;;;10.66;85.65;97141.69;5038668;28;20588;-80
2022/10/28 03:31:37;;;;;;;;;;;;;;;10.68;85.43;97136.75;5024895;28;19964;-80
2022/10/28 03:34:03;;;;;;;;;;;;;;;10.70;85.75;97137.28;5020471;28;19921;-80
2022/10/28 03:36:30;;;;;;;;;;;;;;;10.70;85.67;97137.28;5020479;28;19960;-80
2022/10/28 03:38:56;;;;;;;;;;;;;;;10.76;85.78;97139.91;5022183;28;20004;-79
2022/10/28 03:41:24;;;;;;;;;;;;;;;10.78;85.57;97133.03;5019183;28;19921;-80
2022/10/28 03:43:50;;;;;;;;;;;;;;;10.80;85.62;97140.91;5018445;28;19921;-80
2022/10/28 03:46:16;;;;;;;;;;;;;;;10.78;85.57;97140.41;5018240;28;20011;-80
2022/10/28 03:48:43;;;;;;;;;;;;;;;10.77;85.54;97142.31;5017244;28;20314;-80
2022/10/28 03:51:10;;;;;;;;;;;;;;;10.79;85.78;97137.38;5016366;28;19921;-82
2022/10/28 03:53:36;;;;;;;;;;;;;;;10.74;85.70;97139.38;5017542;28;19922;-80
2022/10/28 03:56:03;;;;;;;;;;;;;;;10.73;85.53;97135.84;5017187;28;19928;-79
2022/10/28 03:58:30;;;;;;;;;;;;;;;10.74;85.54;97133.94;5017246;28;19928;-80
2022/10/28 04:00:57;;;;;;;;;;;;;;;10.76;85.56;97129.81;5018220;28;20416;-80
2022/10/28 04:03:24;;;;;;;;;;;;;;;10.76;85.88;97134.47;5016730;28;20032;-81
2022/10/28 04:05:50;;;;;;;;;;;;;;;10.75;85.57;97133.63;5018946;28;19921;-80
2022/10/28 04:08:20;;;;;;;;;;;;;;;10.78;84.84;97143.13;5020208;28;19928;-80
2022/10/28 04:10:47;;;;;;;;;;;;;;;10.80;84.48;97146.34;5018438;28;19948;-80
2022/10/28 04:13:13;;;;;;;;;;;;;;;10.80;85.01;97147.16;5018055;28;19961;-79
2022/10/28 04:15:41;;;;;;;;;;;;;;;10.80;85.29;97140.91;5022304;28;20029;-79
2022/10/28 04:18:07;;;;;;;;;;;;;;;10.78;85.46;97143.13;5024760;28;19922;-80
2022/10/28 04:20:34;;;;;;;;;;;;;;;10.76;85.43;97142.63;5023043;28;20004;-80
2022/10/28 04:23:00;;;;;;;;;;;;;;;10.76;85.08;97145.34;5022019;28;20223;-80
2022/10/28 04:25:27;;;;;;;;;;;;;;;10.77;84.73;97146.97;5023679;28;19921;-80
2022/10/28 04:27:54;;;;;;;;;;;;;;;10.77;84.30;97141.53;5016526;28;20274;-80
2022/10/28 04:30:20;;;;;;;;;;;;;;;10.76;84.00;97139.91;5015457;28;19921;-80
2022/10/28 04:32:48;;;;;;;;;;;;;;;10.74;84.26;97137.47;5016674;28;20012;-80
2022/10/28 04:35:15;;;;;;;;;;;;;;;10.73;84.01;97145.94;5015881;28;19928;-80
2022/10/28 04:37:41;;;;;;;;;;;;;;;10.67;83.77;97146.03;5016725;28;20337;-79
2022/10/28 04:40:08;;;;;;;;;;;;;;;10.66;84.25;97146.34;5015548;28;20000;-80
2022/10/28 04:42:35;;;;;;;;;;;;;;;10.67;83.85;97150.69;5016522;28;19921;-79
2022/10/28 04:45:01;;;;;;;;;;;;;;;10.59;83.69;97149.44;5022339;28;19922;-80
2022/10/28 04:47:27;;;;;;;;;;;;;;;10.52;83.17;97151.75;5020585;28;19925;-80
2022/10/28 04:49:55;;;;;;;;;;;;;;;10.47;83.37;97146.38;5022659;28;19922;-80
2022/10/28 04:52:22;;;;;;;;;;;;;;;10.45;83.77;97146.69;5017049;28;20510;-80
2022/10/28 04:54:48;;;;;;;;;;;;;;;10.45;84.37;97140.44;5027744;28;19964;-80
2022/10/28 04:57:14;;;;;;;;;;;;;;;10.43;84.91;97142.63;5042452;28;19956;-80
2022/10/28 04:59:41;;;;;;;;;;;;;;;10.42;85.01;97143.75;5042748;28;20007;-80
2022/10/28 05:02:07;;;;;;;;;;;;;;;10.39;85.21;97141.63;5043868;28;19927;-80
2022/10/28 05:04:34;;;;;;;;;;;;;;;10.38;84.97;97140.78;5040564;28;20027;-80
2022/10/28 05:07:01;;;;;;;;;;;;;;;10.37;84.66;97138.38;5037863;28;19921;-80
2022/10/28 05:09:28;;;;;;;;;;;;;;;10.35;84.90;97146.03;5034937;28;19921;-80
2022/10/28 05:11:54;;;;;;;;;;;;;;;10.33;84.73;97140.88;5036370;28;19921;-80
2022/10/28 05:14:21;;;;;;;;;;;;;;;10.29;85.09;97137.16;5029888;28;19921;-79
2022/10/28 05:16:47;;;;;;;;;;;;;;;10.20;85.13;97133.44;5019682;28;19932;-80
2022/10/28 05:19:13;;;;;;;;;;;;;;;10.18;85.21;97127.50;5020552;28;19996;-79
2022/10/28 05:21:40;;;;;;;;;;;;;;;10.20;85.33;97128.81;5022420;28;19945;-81
2022/10/28 05:24:08;;;;;;;;;;;;;;;10.19;85.63;97132.63;5035004;28;19925;-80
2022/10/28 05:26:35;;;;;;;;;;;;;;;10.22;85.76;97133.94;5035699;28;19921;-79
2022/10/28 05:29:01;;;;;;;;;;;;;;;10.19;86.14;97124.47;5033524;28;19921;-80
2022/10/28 05:31:28;;;;;;;;;;;;;;;10.15;86.07;97123.44;5015498;28;19921;-79
2022/10/28 05:33:54;;;;;;;;;;;;;;;10.11;86.21;97122.41;5015091;28;20346;-79
2022/10/28 05:36:20;;;;;;;;;;;;;;;10.12;86.37;97125.94;5014784;28;19921;-79
2022/10/28 05:38:48;;;;;;;;;;;;;;;10.11;85.83;97125.13;5015729;28;19925;-80
2022/10/28 05:41:16;;;;;;;;;;;;;;;10.12;85.60;97126.75;5034236;28;19943;-79
2022/10/28 05:43:42;;;;;;;;;;;;;;;10.15;85.30;97130.81;5033719;28;19925;-80
2022/10/28 05:46:09;;;;;;;;;;;;;;;10.14;85.05;97135.44;5035423;28;20000;-79
2022/10/28 05:48:35;;;;;;;;;;;;;;;10.12;85.06;97132.19;5034540;28;20009;-79
2022/10/28 05:51:02;;;;;;;;;;;;;;;10.11;85.29;97132.50;5034214;28;19921;-79
2022/10/28 05:53:28;;;;;;;;;;;;;;;10.10;85.20;97139.84;5036665;28;19943;-79
2022/10/28 05:55:55;;;;;;;;;;;;;;;10.08;84.78;97139.34;5026527;28;19960;-80
2022/10/28 05:58:22;;;;;;;;;;;;;;;10.05;84.72;97148.09;5013998;28;19930;-80
2022/10/28 06:00:49;;;;;;;;;;;;;;;10.02;84.60;97140.50;5015183;28;19921;-79
2022/10/28 06:03:15;;;;;;;;;;;;;;;10.03;85.15;97139.44;5013706;28;20008;-79
2022/10/28 06:05:43;;;;;;;;;;;;;;;10.04;85.23;97143.75;5014551;28;19928;-80
2022/10/28 06:08:10;;;;;;;;;;;;;;;10.07;85.29;97153.22;5013759;28;19922;-79
2022/10/28 06:10:36;;;;;;;;;;;;;;;10.12;85.56;97142.28;5014559;28;19925;-80
2022/10/28 06:13:03;;;;;;;;;;;;;;;10.15;85.78;97149.84;5013163;28;20021;-80
2022/10/28 06:15:31;;;;;;;;;;;;;;;10.18;86.00;97152.81;5029622;28;20373;-79
2022/10/28 06:17:57;;;;;;;;;;;;;;;10.20;86.27;97150.59;5021596;28;19932;-80
2022/10/28 06:20:24;;;;;;;;;;;;;;;10.24;86.70;97150.84;5017759;28;19921;-80
2022/10/28 06:22:51;;;;;;;;;;;;;;;10.29;87.04;97158.94;5015521;28;20343;-79
2022/10/28 06:25:17;;;;;;;;;;;;;;;10.34;87.26;97166.22;5032378;28;20288;-79
2022/10/28 06:27:44;;;;;;;;;;;;;;;10.41;87.17;97167.44;5033609;28;19920;-80
2022/10/28 06:30:10;;;;;;;;;;;;;;;10.48;87.61;97172.50;5022539;28;19927;-79
2022/10/28 06:32:38;;;;;;;;;;;;;;;10.56;87.76;97180.00;5012613;28;20441;-79
2022/10/28 06:35:05;;;;;;;;;;;;;;;10.61;87.27;97181.84;5013278;28;19928;-80
2022/10/28 06:37:31;;;;;;;;;;;;;;;10.67;86.19;97176.00;5013283;28;19927;-80
2022/10/28 06:39:59;;;;;;;;;;;;;;;10.73;86.25;97178.63;5019461;28;20017;-80
2022/10/28 06:42:25;;;;;;;;;;;;;;;10.81;86.67;97175.22;5032982;28;20016;-79
2022/10/28 06:44:53;;;;;;;;;;;;;;;10.91;86.81;97175.88;5033022;28;19921;-80
2022/10/28 06:47:19;;;;;;;;;;;;;;;11.02;87.16;97176.50;5014204;28;20277;-80
2022/10/28 06:49:47;;;;;;;;;;;;;;;11.10;87.46;97169.53;5018570;28;19921;-80
2022/10/28 06:52:14;;;;;;;;;;;;;;;11.03;86.60;97172.66;5040511;28;19921;-80
2022/10/28 06:54:40;;;;;;;;;;;;;;;11.13;86.28;97171.66;5034714;28;19921;-81
2022/10/28 06:57:10;;;;;;;;;;;;;;;11.13;86.17;97172.47;5034499;28;19987;-80
2022/10/28 07:02:12;;;;;;;;;;;;;;;11.38;85.46;97175.78;5047805;23;19921;-82
2022/10/28 07:07:06;;;;;;;;;;;;;;;11.55;85.66;97178.72;5828069;23;19916;-80
2022/10/28 07:09:35;;;;;;;;;;;;;;;11.63;85.71;97180.72;5104799;23;19959;-81
2022/10/28 07:12:02;;;;;;;;;;;;;;;11.72;85.60;97178.09;5031558;28;19922;-79
2022/10/28 07:29:43;;;;;;;;;;;;;;;12.20;84.26;97203.00;5187031;23;19916;-81
2022/10/28 07:32:10;;;;;;;;;;;;;;;12.30;83.57;97209.34;5189297;23;19924;-79
2022/10/28 07:37:05;;;;;;;;;;;;;;;12.49;82.33;97210.00;5056887;23;19920;-79
2022/10/28 07:39:32;;;;;;;;;;;;;;;12.61;81.17;97210.25;5058069;28;19905;-80
2022/10/28 07:42:00;;;;;;;;;;;;;;;12.70;79.56;97208.41;5036885;28;19963;-80
2022/10/28 07:44:26;;;;;;;;;;;;;;;12.81;77.77;97208.97;5242828;23;19905;-81
2022/10/28 07:46:54;;;;;;;;;;;;;;;13.02;78.19;97203.78;5058401;28;19905;-81
2022/10/28 07:49:21;;;;;;;;;;;;;;;13.20;77.27;97208.22;5057138;28;19905;-80
2022/10/28 07:51:49;;;;;;;;;;;;;;;13.38;75.09;97216.56;5055481;28;19921;-82
2022/10/28 07:54:16;;;;;;;;;;;;;;;13.61;74.18;97220.81;5491178;23;19905;-81
2022/10/28 08:06:55;;;;;;;;;;;;;;;14.48;70.44;97221.03;6115648;23;19916;-81
2022/10/28 08:09:22;;;;;;;;;;;;;;;14.65;70.28;97226.53;5138132;23;19917;-81
2022/10/28 08:11:55;;;;;;;;;;;;;;;14.81;69.74;97218.59;5059499;28;19921;-78
2022/10/28 08:14:21;;;;;;;;;;;;;;;15.08;69.47;97217.44;5047134;28;19975;-79
2022/10/28 08:16:52;;;;;;;;;;;;;;;15.31;68.39;97221.59;5043881;28;19909;-80
2022/10/28 08:19:19;;;;;;;;;;;;;;;15.61;66.05;97218.91;5050778;28;19951;-82
2022/10/28 08:22:08;;;;;;;;;;;;;;;15.69;64.00;97220.81;5146903;23;19920;-82
2022/10/28 08:24:35;;;;;;;;;;;;;;;15.86;64.92;97215.25;5023157;28;19921;-80
2022/10/28 08:27:02;;;;;;;;;;;;;;;15.93;61.18;97219.44;5020326;28;20000;-81
2022/10/28 08:34:28;;;;;;;;;;;;;;;16.33;60.42;97217.88;5052877;23;19908;-82
2022/10/28 08:36:55;;;;;;;;;;;;;;;16.66;61.27;97214.41;5063930;28;19932;-83
2022/10/28 08:49:41;;;;;;;;;;;;;;;16.88;60.89;97194.81;5035769;28;19921;-80
2022/10/28 08:52:13;;;;;;;;;;;;;;;16.93;61.40;97191.03;5024077;28;19905;-81
2022/10/28 08:57:07;;;;;;;;;;;;;;;17.06;61.91;97189.13;5302567;22;19925;-81
2022/10/28 08:59:37;;;;;;;;;;;;;;;17.16;62.01;97191.44;5038229;23;19948;-81
2022/10/28 09:02:12;;;;;;;;;;;;;;;17.27;61.84;97189.88;5031897;28;19988;-81
2022/10/28 09:12:46;;;;;;;;;;;;;;;17.35;62.87;97193.69;5083758;22;19928;-79
2022/10/28 09:15:20;;;;;;;;;;;;;;;17.43;63.23;97193.56;4998955;28;19932;-82
2022/10/28 09:20:29;;;;;;;;;;;;;;;17.42;61.34;97191.97;5099241;22;19929;-82
2022/10/28 09:22:56;;;;;;;;;;;;;;;17.52;61.17;97196.22;5014151;28;19921;-81
2022/10/28 09:25:26;;;;;;;;;;;;;;;17.58;62.04;97202.31;4991930;28;19989;-81
2022/10/28 09:28:08;;;;;;;;;;;;;;;17.63;62.63;97199.31;4989963;28;19929;-81
2022/10/28 09:30:45;;;;;;;;;;;;;;;17.69;63.56;97201.50;4989926;28;19989;-81
2022/10/28 09:33:18;;;;;;;;;;;;;;;17.76;63.69;97201.00;5005719;28;19922;-80
2022/10/28 09:35:47;;;;;;;;;;;;;;;17.86;63.44;97199.72;4990451;28;20300;-80
2022/10/28 09:38:16;;;;;;;;;;;;;;;17.91;63.26;97196.75;5005768;28;19925;-80
2022/10/28 09:40:47;;;;;;;;;;;;;;;17.93;63.44;97195.25;5027469;28;19927;-81
2022/10/28 09:43:19;;;;;;;;;;;;;;;17.90;63.22;97195.91;5013432;28;20128;-80
2022/10/28 09:45:48;;;;;;;;;;;;;;;17.96;62.97;97194.56;5007290;28;20012;-80
2022/10/28 09:48:19;;;;;;;;;;;;;;;18.12;63.14;97196.63;5008399;28;20024;-81
2022/10/28 09:50:49;;;;;;;;;;;;;;;18.24;62.20;97194.63;5007998;28;19989;-80
2022/10/28 09:53:21;;;;;;;;;;;;;;;18.36;62.06;97191.03;5008565;28;19977;-81
2022/10/28 09:55:49;;;;;;;;;;;;;;;18.47;62.35;97183.09;4992127;28;19941;-81
2022/10/28 09:58:17;;;;;;;;;;;;;;;18.46;61.46;97196.06;5009191;28;19922;-80
2022/10/28 10:00:43;;;;;;;;;;;;;;;18.50;62.22;97202.50;5004439;28;19921;-79
2022/10/28 10:03:11;;;;;;;;;;;;;;;18.55;61.98;97201.47;5007606;28;20424;-81
2022/10/28 10:05:40;;;;;;;;;;;;;;;18.71;62.49;97198.78;5007114;28;20021;-80
2022/10/28 10:08:11;;;;;;;;;;;;;;;18.89;61.72;97191.00;4988494;28;19977;-79
2022/10/28 10:10:44;;;;;;;;;;;;;;;19.13;62.08;97179.06;4987504;28;20024;-80
2022/10/28 10:13:12;;;;;;;;;;;;;;;19.35;61.33;97177.66;5006179;28;19953;-80
2022/10/28 10:15:43;;;;;;;;;;;;;;;19.51;61.34;97173.75;5006659;28;19921;-80
2022/10/28 10:18:13;;;;;;;;;;;;;;;19.76;60.37;97168.06;5001499;28;19970;-80
2022/10/28 10:20:47;;;;;;;;;;;;;;;20.01;59.77;97169.47;5009420;28;20410;-81
2022/10/28 10:23:21;;;;;;;;;;;;;;;20.20;57.99;97173.44;4997063;28;19922;-80
2022/10/28 10:25:54;;;;;;;;;;;;;;;20.40;57.93;97177.81;4997072;28;19950;-80
2022/10/28 10:28:21;;;;;;;;;;;;;;;20.56;58.71;97175.84;5004149;28;19949;-80
2022/10/28 10:30:49;;;;;;;;;;;;;;;20.58;57.31;97173.53;4987498;28;19971;-79
2022/10/28 10:33:19;;;;;;;;;;;;;;;20.71;58.09;97167.84;4991156;28;19993;-81
2022/10/28 10:35:53;;;;;;;;;;;;;;;20.76;57.38;97171.13;4989706;28;20296;-80
2022/10/28 10:38:19;;;;;;;;;;;;;;;20.90;57.15;97165.06;4998609;28;19950;-80
2022/10/28 10:40:48;;;;;;;;;;;;;;;21.01;56.91;97177.16;4988672;28;19993;-80
2022/10/28 10:43:20;;;;;;;;;;;;;;;21.20;57.35;97179.09;4974710;28;19965;-80
2022/10/28 10:45:50;;;;;;;;;;;;;;;21.30;56.17;97172.19;5015804;28;19906;-80
2022/10/28 10:48:17;;;;;;;;;;;;;;;21.37;55.40;97166.75;5005992;28;19922;-80
2022/10/28 10:50:45;;;;;;;;;;;;;;;21.49;55.29;97169.34;4988618;28;19922;-79
2022/10/28 10:53:19;;;;;;;;;;;;;;;21.57;55.06;97176.63;4987630;28;20009;-80
2022/10/28 10:55:49;;;;;;;;;;;;;;;21.51;55.93;97175.34;5000283;28;19921;-79
2022/10/28 10:58:17;;;;;;;;;;;;;;;21.55;57.09;97173.41;5000833;28;19984;-77
2022/10/28 11:00:45;;;;;;;;;;;;;;;21.75;54.49;97170.56;4982669;28;20369;-77
2022/10/28 11:03:16;;;;;;;;;;;;;;;21.98;53.80;97173.31;4989193;28;19937;-78
2022/10/28 11:05:47;;;;;;;;;;;;;;;22.06;54.20;97170.28;4992620;28;19928;-77
2022/10/28 11:08:22;;;;;;;;;;;;;;;22.16;53.87;97163.31;4992798;28;20393;-77
2022/10/28 11:11:02;;;;;;;;;;;;;;;22.12;54.53;97146.63;4962099;28;19922;-79
2022/10/28 11:13:30;;;;;;;;;;;;;;;22.07;54.44;97146.91;5001018;28;19929;-79
2022/10/28 11:15:59;;;;;;;;;;;;;;;22.06;54.27;97150.84;4991495;28;20001;-79
2022/10/28 11:18:28;;;;;;;;;;;;;;;22.20;54.58;97146.75;5004374;28;19921;-79
2022/10/28 11:20:58;;;;;;;;;;;;;;;22.33;54.65;97146.13;4996778;28;19922;-79
2022/10/28 11:23:33;;;;;;;;;;;;;;;22.54;54.40;97145.59;4993791;28;20403;-80
2022/10/28 11:26:03;;;;;;;;;;;;;;;22.69;54.09;97141.03;4983382;28;20400;-79
2022/10/28 11:28:48;;;;;;;;;;;;;;;22.63;54.77;97135.00;4982268;28;19922;-79
2022/10/28 11:31:26;;;;;;;;;;;;;;;22.52;55.15;97136.84;4996234;28;19922;-80
2022/10/28 11:33:59;;;;;;;;;;;;;;;22.49;54.62;97134.81;4993745;28;19929;-79
2022/10/28 11:36:30;;;;;;;;;;;;;;;22.62;54.16;97127.06;4993016;28;19926;-79
2022/10/28 11:39:07;;;;;;;;;;;;;;;22.74;54.39;97132.38;5001204;28;20335;-80
2022/10/28 11:41:43;;;;;;;;;;;;;;;22.77;54.32;97125.28;5008488;28;19922;-80
2022/10/28 11:44:18;;;;;;;;;;;;;;;22.74;54.58;97120.47;5004446;28;19993;-80
2022/10/28 11:46:49;;;;;;;;;;;;;;;22.66;55.06;97114.84;5004356;28;19965;-79
2022/10/28 11:49:30;;;;;;;;;;;;;;;22.60;54.39;97121.06;5002344;28;19921;-79
2022/10/28 11:52:01;;;;;;;;;;;;;;;22.64;54.30;97117.16;4998200;28;19922;-80
2022/10/28 11:54:36;;;;;;;;;;;;;;;22.84;53.54;97125.34;4992737;28;19957;-81
2022/10/28 11:57:07;;;;;;;;;;;;;;;23.08;51.82;97108.19;4983223;28;19922;-79
2022/10/28 11:59:40;;;;;;;;;;;;;;;23.27;50.07;97103.59;4983759;28;20009;-79
2022/10/28 12:02:15;;;;;;;;;;;;;;;23.51;51.74;97105.78;4988233;28;19928;-80
2022/10/28 12:04:52;;;;;;;;;;;;;;;23.76;46.56;97096.88;5003932;28;19960;-81
2022/10/28 12:07:28;;;;;;;;;;;;;;;23.78;45.44;97102.84;5002446;28;19922;-79
2022/10/28 12:10:03;;;;;;;;;;;;;;;23.74;45.67;97090.91;5003507;28;19922;-80
2022/10/28 12:12:36;;;;;;;;;;;;;;;23.95;45.58;97099.38;4986166;28;19948;-79
2022/10/28 12:15:12;;;;;;;;;;;;;;;24.10;44.08;97095.50;4996952;28;19922;-79
2022/10/28 12:17:41;;;;;;;;;;;;;;;24.20;44.27;97083.63;5001416;28;20365;-79
2022/10/28 12:20:11;;;;;;;;;;;;;;;24.33;44.98;97083.31;5002675;28;19949;-79
2022/10/28 12:22:44;;;;;;;;;;;;;;;24.46;43.00;97084.59;5002000;28;20390;-79
2022/10/28 12:25:14;;;;;;;;;;;;;;;24.58;43.60;97089.78;5002184;28;19922;-78
2022/10/28 12:27:44;;;;;;;;;;;;;;;24.60;42.87;97084.66;4969769;28;19928;-80
2022/10/28 12:30:19;;;;;;;;;;;;;;;24.87;42.63;97087.13;5002699;28;19989;-78
2022/10/28 12:32:48;;;;;;;;;;;;;;;25.07;41.97;97080.03;4997304;28;19981;-80
2022/10/28 12:35:17;;;;;;;;;;;;;;;25.25;45.05;97078.03;4997000;28;19982;-79
2022/10/28 12:37:47;;;;;;;;;;;;;;;25.44;44.34;97078.88;5008036;28;19926;-80
2022/10/28 12:40:16;;;;;;;;;;;;;;;25.44;44.88;97065.72;5009257;28;19929;-80
2022/10/28 12:42:46;;;;;;;;;;;;;;;25.31;45.81;97069.28;5000566;28;20434;-80
2022/10/28 12:45:14;;;;;;;;;;;;;;;25.27;46.80;97066.53;5004170;28;19934;-79
2022/10/28 12:47:45;;;;;;;;;;;;;;;25.16;46.93;97062.91;5003815;28;19972;-79
2022/10/28 12:50:16;;;;;;;;;;;;;;;25.11;47.84;97064.13;4984874;28;19929;-79
2022/10/28 12:52:48;;;;;;;;;;;;;;;24.93;48.80;97074.38;4985794;28;20005;-80
2022/10/28 12:55:18;;;;;;;;;;;;;;;24.80;49.50;97070.41;4985189;28;19922;-79
2022/10/28 12:57:48;;;;;;;;;;;;;;;24.54;47.79;97063.94;5012179;28;19926;-80
2022/10/28 13:00:17;;;;;;;;;;;;;;;24.45;47.09;97060.72;5017506;28;19905;-80
2022/10/28 13:02:46;;;;;;;;;;;;;;;24.32;48.47;97065.00;5012260;28;19937;-80
2022/10/28 13:05:18;;;;;;;;;;;;;;;24.10;49.15;97070.47;4998425;28;19926;-80
2022/10/28 13:07:52;;;;;;;;;;;;;;;23.99;48.95;97064.03;4982752;28;19922;-80
2022/10/28 13:10:22;;;;;;;;;;;;;;;23.85;49.65;97061.97;4976380;28;19922;-80
2022/10/28 13:13:02;;;;;;;;;;;;;;;23.80;49.86;97047.63;4972741;28;19929;-79
2022/10/28 13:15:38;;;;;;;;;;;;;;;23.76;50.39;97046.84;4994071;28;19949;-80
2022/10/28 13:18:21;;;;;;;;;;;;;;;23.70;50.63;97043.63;4990184;28;19922;-79
2022/10/28 13:20:58;;;;;;;;;;;;;;;23.64;51.21;97045.94;4998933;28;19922;-80
2022/10/28 13:23:29;;;;;;;;;;;;;;;23.57;52.08;97045.06;5005368;28;19985;-80
2022/10/28 13:26:05;;;;;;;;;;;;;;;23.47;53.50;97037.44;5004833;28;19922;-80
2022/10/28 13:28:34;;;;;;;;;;;;;;;23.39;54.32;97045.75;5002813;28;20534;-80
2022/10/28 13:31:02;;;;;;;;;;;;;;;23.29;55.09;97051.22;5002762;28;19921;-80
2022/10/28 13:33:29;;;;;;;;;;;;;;;23.16;55.01;97042.34;5000858;28;19929;-79
2022/10/28 13:36:07;;;;;;;;;;;;;;;23.02;55.28;97043.06;5002284;28;19928;-80
2022/10/28 13:38:34;;;;;;;;;;;;;;;22.89;55.84;97052.81;4999154;28;19928;-79
2022/10/28 13:41:09;;;;;;;;;;;;;;;22.75;55.81;97044.31;5000274;28;19928;-80
2022/10/28 13:43:55;;;;;;;;;;;;;;;22.67;56.94;97047.03;5000123;28;19928;-80
2022/10/28 13:46:36;;;;;;;;;;;;;;;22.66;58.02;97048.22;4999208;28;19985;-81
2022/10/28 13:49:18;;;;;;;;;;;;;;;22.71;58.30;97038.75;4999123;28;20016;-78
2022/10/28 13:51:46;;;;;;;;;;;;;;;22.86;59.45;97039.66;4998551;28;19932;-80
2022/10/28 13:54:27;;;;;;;;;;;;;;;22.91;57.60;97039.34;4999263;28;19932;-81
2022/10/28 13:56:54;;;;;;;;;;;;;;;23.03;56.93;97038.28;4998146;28;19928;-80
2022/10/28 13:59:26;;;;;;;;;;;;;;;23.30;55.64;97036.94;4998570;28;19957;-81
2022/10/28 14:01:54;;;;;;;;;;;;;;;23.63;54.27;97036.00;5001293;28;20284;-78